sensor_id;sensor_type;location;lat;lon;timestamp;P1;durP1;ratioP1;P2;durP2;ratioP2
34711;SDS011;20941;42.408;25.634;2023-03-01T00:01:18;1.80;;;1.10;;
34711;SDS011;20941;42.408;25.634;2023-03-01T00:03:44;1.35;;;1.10;;
34711;SDS011;20941;42.408;25.634;2023-03-01T00:06:10;0.80;;;0.80;;
34711;SDS011;20941;42.408;25.634;2023-03-01T00:08:36;0.98;;;0.98;;
34711;SDS011;20941;42.408;25.634;2023-03-01T00:13:27;1.20;;;1.10;;
34711;SDS011;20941;42.408;25.634;2023-03-01T00:15:52;2.58;;;1.80;;
34711;SDS011;20941;42.408;25.634;2023-03-01T00:18:17;2.78;;;2.00;;
34711;SDS011;20941;42.408;25.634;2023-03-01T00:20:49;3.50;;;2.40;;
34711;SDS011;20941;42.408;25.634;2023-03-01T00:23:14;1.92;;;1.70;;
34711;SDS011;20941;42.408;25.634;2023-03-01T00:25:43;0.82;;;0.82;;
34711;SDS011;20941;42.408;25.634;2023-03-01T00:28:08;0.90;;;0.90;;
34711;SDS011;20941;42.408;25.634;2023-03-01T00:30:34;1.00;;;0.90;;
34711;SDS011;20941;42.408;25.634;2023-03-01T00:32:59;0.77;;;0.77;;
34711;SDS011;20941;42.408;25.634;2023-03-01T00:35:24;1.48;;;0.52;;
34711;SDS011;20941;42.408;25.634;2023-03-01T00:37:50;0.60;;;0.60;;
34711;SDS011;20941;42.408;25.634;2023-03-01T00:40:23;1.95;;;0.80;;
34711;SDS011;20941;42.408;25.634;2023-03-01T00:42:49;0.80;;;0.80;;
34711;SDS011;20941;42.408;25.634;2023-03-01T00:45:14;0.70;;;0.70;;
34711;SDS011;20941;42.408;25.634;2023-03-01T00:47:40;1.23;;;0.80;;
34711;SDS011;20941;42.408;25.634;2023-03-01T00:50:05;0.65;;;0.65;;
34711;SDS011;20941;42.408;25.634;2023-03-01T00:52:30;0.70;;;0.70;;
34711;SDS011;20941;42.408;25.634;2023-03-01T00:54:56;0.63;;;0.63;;
34711;SDS011;20941;42.408;25.634;2023-03-01T00:57:23;0.88;;;0.88;;
34711;SDS011;20941;42.408;25.634;2023-03-01T00:59:48;1.83;;;1.00;;
34711;SDS011;20941;42.408;25.634;2023-03-01T01:02:13;0.85;;;0.82;;
34711;SDS011;20941;42.408;25.634;2023-03-01T01:04:39;0.80;;;0.80;;
34711;SDS011;20941;42.408;25.634;2023-03-01T01:07:04;0.95;;;0.95;;
34711;SDS011;20941;42.408;25.634;2023-03-01T01:09:30;1.17;;;0.98;;
34711;SDS011;20941;42.408;25.634;2023-03-01T01:11:56;0.80;;;0.80;;
34711;SDS011;20941;42.408;25.634;2023-03-01T01:14:21;0.70;;;0.70;;
34711;SDS011;20941;42.408;25.634;2023-03-01T01:16:47;0.80;;;0.80;;
34711;SDS011;20941;42.408;25.634;2023-03-01T01:19:12;0.90;;;0.90;;
34711;SDS011;20941;42.408;25.634;2023-03-01T01:21:38;1.75;;;0.80;;
34711;SDS011;20941;42.408;25.634;2023-03-01T01:24:04;2.05;;;0.90;;
34711;SDS011;20941;42.408;25.634;2023-03-01T01:26:30;1.25;;;0.90;;
34711;SDS011;20941;42.408;25.634;2023-03-01T01:28:56;0.90;;;0.90;;
34711;SDS011;20941;42.408;25.634;2023-03-01T01:31:22;2.17;;;0.80;;
34711;SDS011;20941;42.408;25.634;2023-03-01T01:33:51;0.73;;;0.73;;
34711;SDS011;20941;42.408;25.634;2023-03-01T01:36:16;1.13;;;1.02;;
34711;SDS011;20941;42.408;25.634;2023-03-01T01:38:42;0.82;;;0.80;;
34711;SDS011;20941;42.408;25.634;2023-03-01T01:41:07;1.27;;;1.17;;
34711;SDS011;20941;42.408;25.634;2023-03-01T01:43:35;0.80;;;0.80;;
34711;SDS011;20941;42.408;25.634;2023-03-01T01:46:04;1.05;;;0.95;;
34711;SDS011;20941;42.408;25.634;2023-03-01T01:48:37;1.08;;;0.95;;
34711;SDS011;20941;42.408;25.634;2023-03-01T01:51:05;0.90;;;0.90;;
34711;SDS011;20941;42.408;25.634;2023-03-01T01:53:31;0.90;;;0.90;;
34711;SDS011;20941;42.408;25.634;2023-03-01T01:55:58;1.13;;;0.88;;
34711;SDS011;20941;42.408;25.634;2023-03-01T01:58:24;1.02;;;1.00;;
34711;SDS011;20941;42.408;25.634;2023-03-01T02:00:51;0.90;;;0.90;;
34711;SDS011;20941;42.408;25.634;2023-03-01T02:03:18;0.90;;;0.90;;
34711;SDS011;20941;42.408;25.634;2023-03-01T02:05:47;0.90;;;0.90;;
34711;SDS011;20941;42.408;25.634;2023-03-01T02:08:16;1.02;;;0.80;;
34711;SDS011;20941;42.408;25.634;2023-03-01T02:10:42;0.82;;;0.82;;
34711;SDS011;20941;42.408;25.634;2023-03-01T02:13:07;1.10;;;1.00;;
34711;SDS011;20941;42.408;25.634;2023-03-01T02:15:34;0.70;;;0.70;;
34711;SDS011;20941;42.408;25.634;2023-03-01T02:18:00;0.60;;;0.60;;
34711;SDS011;20941;42.408;25.634;2023-03-01T02:20:27;0.90;;;0.90;;
34711;SDS011;20941;42.408;25.634;2023-03-01T02:22:54;0.90;;;0.90;;
34711;SDS011;20941;42.408;25.634;2023-03-01T02:30:19;1.00;;;1.00;;
34711;SDS011;20941;42.408;25.634;2023-03-01T02:32:45;1.13;;;1.10;;
34711;SDS011;20941;42.408;25.634;2023-03-01T02:35:12;0.80;;;0.80;;
34711;SDS011;20941;42.408;25.634;2023-03-01T02:37:39;0.70;;;0.70;;
34711;SDS011;20941;42.408;25.634;2023-03-01T02:40:06;0.70;;;0.57;;
34711;SDS011;20941;42.408;25.634;2023-03-01T02:42:36;0.70;;;0.70;;
34711;SDS011;20941;42.408;25.634;2023-03-01T02:45:06;0.70;;;0.70;;
34711;SDS011;20941;42.408;25.634;2023-03-01T02:47:31;0.77;;;0.77;;
34711;SDS011;20941;42.408;25.634;2023-03-01T02:49:57;1.40;;;0.75;;
34711;SDS011;20941;42.408;25.634;2023-03-01T02:57:22;0.73;;;0.73;;
34711;SDS011;20941;42.408;25.634;2023-03-01T02:59:48;1.35;;;0.77;;
34711;SDS011;20941;42.408;25.634;2023-03-01T03:02:22;0.60;;;0.60;;
34711;SDS011;20941;42.408;25.634;2023-03-01T03:05:09;0.55;;;0.55;;
34711;SDS011;20941;42.408;25.634;2023-03-01T03:07:36;0.50;;;0.50;;
34711;SDS011;20941;42.408;25.634;2023-03-01T03:10:03;0.60;;;0.60;;
34711;SDS011;20941;42.408;25.634;2023-03-01T03:12:29;0.55;;;0.55;;
34711;SDS011;20941;42.408;25.634;2023-03-01T03:14:54;0.50;;;0.50;;
34711;SDS011;20941;42.408;25.634;2023-03-01T03:17:19;0.70;;;0.70;;
34711;SDS011;20941;42.408;25.634;2023-03-01T03:19:45;0.75;;;0.75;;
34711;SDS011;20941;42.408;25.634;2023-03-01T03:22:13;0.65;;;0.57;;
34711;SDS011;20941;42.408;25.634;2023-03-01T03:24:38;0.52;;;0.52;;
34711;SDS011;20941;42.408;25.634;2023-03-01T03:27:04;0.50;;;0.50;;
34711;SDS011;20941;42.408;25.634;2023-03-01T03:29:30;0.93;;;0.60;;
34711;SDS011;20941;42.408;25.634;2023-03-01T03:31:55;0.68;;;0.68;;
34711;SDS011;20941;42.408;25.634;2023-03-01T03:34:20;0.50;;;0.50;;
34711;SDS011;20941;42.408;25.634;2023-03-01T03:36:46;0.50;;;0.50;;
34711;SDS011;20941;42.408;25.634;2023-03-01T03:39:11;0.60;;;0.60;;
34711;SDS011;20941;42.408;25.634;2023-03-01T03:41:36;0.63;;;0.63;;
34711;SDS011;20941;42.408;25.634;2023-03-01T03:44:02;0.60;;;0.60;;
34711;SDS011;20941;42.408;25.634;2023-03-01T03:46:27;0.70;;;0.70;;
34711;SDS011;20941;42.408;25.634;2023-03-01T03:48:54;0.60;;;0.60;;
34711;SDS011;20941;42.408;25.634;2023-03-01T03:51:19;0.60;;;0.60;;
34711;SDS011;20941;42.408;25.634;2023-03-01T03:53:45;0.57;;;0.57;;
34711;SDS011;20941;42.408;25.634;2023-03-01T03:56:10;1.02;;;0.80;;
34711;SDS011;20941;42.408;25.634;2023-03-01T04:04:22;0.90;;;0.90;;
34711;SDS011;20941;42.408;25.634;2023-03-01T04:06:47;2.17;;;1.55;;
34711;SDS011;20941;42.408;25.634;2023-03-01T04:09:13;1.65;;;1.40;;
34711;SDS011;20941;42.408;25.634;2023-03-01T04:11:38;3.40;;;1.50;;
34711;SDS011;20941;42.408;25.634;2023-03-01T04:14:04;1.13;;;1.00;;
34711;SDS011;20941;42.408;25.634;2023-03-01T04:16:29;1.55;;;1.02;;
34711;SDS011;20941;42.408;25.634;2023-03-01T04:18:55;1.05;;;1.00;;
34711;SDS011;20941;42.408;25.634;2023-03-01T04:21:20;0.90;;;0.80;;
34711;SDS011;20941;42.408;25.634;2023-03-01T04:23:46;2.35;;;1.10;;
34711;SDS011;20941;42.408;25.634;2023-03-01T04:26:11;2.10;;;1.35;;
34711;SDS011;20941;42.408;25.634;2023-03-01T04:28:37;1.27;;;1.00;;
34711;SDS011;20941;42.408;25.634;2023-03-01T04:31:06;3.72;;;1.35;;
34711;SDS011;20941;42.408;25.634;2023-03-01T04:33:38;1.33;;;1.23;;
34711;SDS011;20941;42.408;25.634;2023-03-01T04:36:04;2.00;;;1.13;;
34711;SDS011;20941;42.408;25.634;2023-03-01T04:38:30;2.58;;;1.10;;
34711;SDS011;20941;42.408;25.634;2023-03-01T04:40:55;2.38;;;1.23;;
34711;SDS011;20941;42.408;25.634;2023-03-01T04:43:21;2.72;;;1.50;;
34711;SDS011;20941;42.408;25.634;2023-03-01T04:45:46;1.85;;;1.20;;
34711;SDS011;20941;42.408;25.634;2023-03-01T04:48:11;2.08;;;1.30;;
34711;SDS011;20941;42.408;25.634;2023-03-01T04:50:37;4.78;;;1.55;;
34711;SDS011;20941;42.408;25.634;2023-03-01T04:53:02;1.20;;;1.10;;
34711;SDS011;20941;42.408;25.634;2023-03-01T04:55:28;1.75;;;1.10;;
34711;SDS011;20941;42.408;25.634;2023-03-01T04:57:54;2.00;;;1.27;;
34711;SDS011;20941;42.408;25.634;2023-03-01T05:00:19;2.38;;;0.85;;
34711;SDS011;20941;42.408;25.634;2023-03-01T05:03:18;0.98;;;0.90;;
34711;SDS011;20941;42.408;25.634;2023-03-01T05:05:37;0.60;;;0.60;;
34711;SDS011;20941;42.408;25.634;2023-03-01T05:08:06;3.53;;;1.50;;
34711;SDS011;20941;42.408;25.634;2023-03-01T05:10:33;7.32;;;1.30;;
34711;SDS011;20941;42.408;25.634;2023-03-01T05:13:00;2.35;;;1.15;;
34711;SDS011;20941;42.408;25.634;2023-03-01T05:15:26;1.40;;;1.30;;
34711;SDS011;20941;42.408;25.634;2023-03-01T05:17:53;2.55;;;1.20;;
34711;SDS011;20941;42.408;25.634;2023-03-01T05:20:19;1.42;;;1.35;;
34711;SDS011;20941;42.408;25.634;2023-03-01T05:22:48;2.00;;;1.85;;
34711;SDS011;20941;42.408;25.634;2023-03-01T05:25:13;5.75;;;2.08;;
34711;SDS011;20941;42.408;25.634;2023-03-01T05:27:39;6.88;;;3.78;;
34711;SDS011;20941;42.408;25.634;2023-03-01T05:30:04;2.47;;;2.20;;
34711;SDS011;20941;42.408;25.634;2023-03-01T05:32:39;3.75;;;2.20;;
34711;SDS011;20941;42.408;25.634;2023-03-01T05:35:04;1.20;;;1.20;;
34711;SDS011;20941;42.408;25.634;2023-03-01T05:37:30;2.92;;;1.90;;
34711;SDS011;20941;42.408;25.634;2023-03-01T05:39:56;3.22;;;2.38;;
34711;SDS011;20941;42.408;25.634;2023-03-01T05:42:21;2.88;;;2.63;;
34711;SDS011;20941;42.408;25.634;2023-03-01T05:44:46;2.95;;;2.72;;
34711;SDS011;20941;42.408;25.634;2023-03-01T05:47:11;3.10;;;2.80;;
34711;SDS011;20941;42.408;25.634;2023-03-01T05:49:37;3.03;;;2.78;;
34711;SDS011;20941;42.408;25.634;2023-03-01T05:52:02;5.97;;;2.45;;
34711;SDS011;20941;42.408;25.634;2023-03-01T05:54:28;3.75;;;2.60;;
34711;SDS011;20941;42.408;25.634;2023-03-01T05:56:53;3.58;;;1.80;;
34711;SDS011;20941;42.408;25.634;2023-03-01T05:59:18;1.80;;;1.70;;
34711;SDS011;20941;42.408;25.634;2023-03-01T06:01:44;2.13;;;1.70;;
34711;SDS011;20941;42.408;25.634;2023-03-01T06:04:09;1.67;;;1.58;;
34711;SDS011;20941;42.408;25.634;2023-03-01T06:06:36;1.98;;;1.70;;
34711;SDS011;20941;42.408;25.634;2023-03-01T06:09:05;2.92;;;1.45;;
34711;SDS011;20941;42.408;25.634;2023-03-01T06:11:33;1.60;;;1.20;;
34711;SDS011;20941;42.408;25.634;2023-03-01T06:13:58;2.47;;;1.60;;
34711;SDS011;20941;42.408;25.634;2023-03-01T06:16:23;2.60;;;2.40;;
34711;SDS011;20941;42.408;25.634;2023-03-01T06:18:49;1.70;;;1.60;;
34711;SDS011;20941;42.408;25.634;2023-03-01T06:21:14;1.90;;;1.80;;
34711;SDS011;20941;42.408;25.634;2023-03-01T06:23:40;28.13;;;10.82;;
34711;SDS011;20941;42.408;25.634;2023-03-01T06:26:06;11.63;;;5.15;;
34711;SDS011;20941;42.408;25.634;2023-03-01T06:28:32;5.88;;;3.80;;
34711;SDS011;20941;42.408;25.634;2023-03-01T06:30:57;10.57;;;5.50;;
34711;SDS011;20941;42.408;25.634;2023-03-01T06:33:22;6.18;;;4.05;;
34711;SDS011;20941;42.408;25.634;2023-03-01T06:35:49;6.80;;;4.68;;
34711;SDS011;20941;42.408;25.634;2023-03-01T06:38:15;15.55;;;9.25;;
34711;SDS011;20941;42.408;25.634;2023-03-01T06:40:42;8.18;;;6.10;;
34711;SDS011;20941;42.408;25.634;2023-03-01T06:43:07;4.15;;;2.50;;
34711;SDS011;20941;42.408;25.634;2023-03-01T06:45:33;1.90;;;1.63;;
34711;SDS011;20941;42.408;25.634;2023-03-01T06:48:03;6.25;;;2.25;;
34711;SDS011;20941;42.408;25.634;2023-03-01T06:50:28;6.38;;;2.20;;
34711;SDS011;20941;42.408;25.634;2023-03-01T06:52:57;2.47;;;2.28;;
34711;SDS011;20941;42.408;25.634;2023-03-01T06:55:22;5.72;;;2.70;;
34711;SDS011;20941;42.408;25.634;2023-03-01T06:57:48;5.57;;;3.28;;
34711;SDS011;20941;42.408;25.634;2023-03-01T07:00:13;4.18;;;2.80;;
34711;SDS011;20941;42.408;25.634;2023-03-01T07:02:39;3.25;;;1.70;;
34711;SDS011;20941;42.408;25.634;2023-03-01T07:05:04;3.60;;;2.17;;
34711;SDS011;20941;42.408;25.634;2023-03-01T07:07:29;28.10;;;10.63;;
34711;SDS011;20941;42.408;25.634;2023-03-01T07:09:55;8.07;;;3.13;;
34711;SDS011;20941;42.408;25.634;2023-03-01T07:12:20;8.57;;;4.00;;
34711;SDS011;20941;42.408;25.634;2023-03-01T07:14:46;7.05;;;2.90;;
34711;SDS011;20941;42.408;25.634;2023-03-01T07:17:11;4.07;;;2.47;;
34711;SDS011;20941;42.408;25.634;2023-03-01T07:19:36;5.38;;;2.80;;
34711;SDS011;20941;42.408;25.634;2023-03-01T07:22:03;3.60;;;2.58;;
34711;SDS011;20941;42.408;25.634;2023-03-01T07:24:29;3.03;;;2.25;;
34711;SDS011;20941;42.408;25.634;2023-03-01T07:26:54;6.47;;;3.03;;
34711;SDS011;20941;42.408;25.634;2023-03-01T07:29:20;4.03;;;2.78;;
34711;SDS011;20941;42.408;25.634;2023-03-01T07:31:45;5.55;;;3.88;;
34711;SDS011;20941;42.408;25.634;2023-03-01T07:34:11;9.82;;;6.10;;
34711;SDS011;20941;42.408;25.634;2023-03-01T07:36:36;11.32;;;5.78;;
34711;SDS011;20941;42.408;25.634;2023-03-01T07:39:02;6.28;;;4.32;;
34711;SDS011;20941;42.408;25.634;2023-03-01T07:41:28;4.75;;;2.88;;
34711;SDS011;20941;42.408;25.634;2023-03-01T07:43:53;6.72;;;3.10;;
34711;SDS011;20941;42.408;25.634;2023-03-01T07:46:19;4.93;;;2.35;;
34711;SDS011;20941;42.408;25.634;2023-03-01T07:48:44;5.53;;;2.85;;
34711;SDS011;20941;42.408;25.634;2023-03-01T07:51:09;6.22;;;2.92;;
34711;SDS011;20941;42.408;25.634;2023-03-01T07:53:35;2.95;;;1.92;;
34711;SDS011;20941;42.408;25.634;2023-03-01T07:56:05;5.90;;;3.67;;
34711;SDS011;20941;42.408;25.634;2023-03-01T07:58:30;7.60;;;4.22;;
34711;SDS011;20941;42.408;25.634;2023-03-01T08:00:56;6.30;;;3.45;;
34711;SDS011;20941;42.408;25.634;2023-03-01T08:03:21;5.20;;;2.25;;
34711;SDS011;20941;42.408;25.634;2023-03-01T08:05:46;4.60;;;2.25;;
34711;SDS011;20941;42.408;25.634;2023-03-01T08:08:12;5.30;;;3.17;;
34711;SDS011;20941;42.408;25.634;2023-03-01T08:10:37;5.15;;;2.72;;
34711;SDS011;20941;42.408;25.634;2023-03-01T08:13:02;8.77;;;2.63;;
34711;SDS011;20941;42.408;25.634;2023-03-01T08:15:28;6.85;;;3.47;;
34711;SDS011;20941;42.408;25.634;2023-03-01T08:17:53;3.85;;;1.90;;
34711;SDS011;20941;42.408;25.634;2023-03-01T08:20:18;3.80;;;3.00;;
34711;SDS011;20941;42.408;25.634;2023-03-01T08:22:44;3.78;;;2.97;;
34711;SDS011;20941;42.408;25.634;2023-03-01T08:25:09;5.88;;;3.47;;
34711;SDS011;20941;42.408;25.634;2023-03-01T08:27:35;6.03;;;2.67;;
34711;SDS011;20941;42.408;25.634;2023-03-01T08:30:00;2.58;;;2.38;;
34711;SDS011;20941;42.408;25.634;2023-03-01T08:32:25;4.20;;;2.70;;
34711;SDS011;20941;42.408;25.634;2023-03-01T08:34:51;5.93;;;3.17;;
34711;SDS011;20941;42.408;25.634;2023-03-01T08:37:16;9.27;;;4.60;;
34711;SDS011;20941;42.408;25.634;2023-03-01T08:39:41;6.43;;;2.90;;
34711;SDS011;20941;42.408;25.634;2023-03-01T08:42:07;4.05;;;2.55;;
34711;SDS011;20941;42.408;25.634;2023-03-01T08:44:32;4.05;;;2.55;;
34711;SDS011;20941;42.408;25.634;2023-03-01T08:46:58;4.45;;;2.60;;
34711;SDS011;20941;42.408;25.634;2023-03-01T08:49:25;5.15;;;2.60;;
34711;SDS011;20941;42.408;25.634;2023-03-01T08:51:50;4.95;;;3.63;;
34711;SDS011;20941;42.408;25.634;2023-03-01T08:54:17;20.88;;;3.67;;
34711;SDS011;20941;42.408;25.634;2023-03-01T08:56:43;5.78;;;3.95;;
34711;SDS011;20941;42.408;25.634;2023-03-01T08:59:09;6.57;;;3.40;;
34711;SDS011;20941;42.408;25.634;2023-03-01T09:01:35;6.43;;;3.33;;
34711;SDS011;20941;42.408;25.634;2023-03-01T09:04:02;6.25;;;3.33;;
34711;SDS011;20941;42.408;25.634;2023-03-01T09:06:30;8.13;;;2.72;;
34711;SDS011;20941;42.408;25.634;2023-03-01T09:08:55;3.58;;;2.70;;
34711;SDS011;20941;42.408;25.634;2023-03-01T09:11:21;4.32;;;2.63;;
34711;SDS011;20941;42.408;25.634;2023-03-01T09:13:47;4.35;;;3.53;;
34711;SDS011;20941;42.408;25.634;2023-03-01T09:16:13;5.63;;;2.92;;
34711;SDS011;20941;42.408;25.634;2023-03-01T09:18:39;6.78;;;2.90;;
34711;SDS011;20941;42.408;25.634;2023-03-01T09:21:09;4.05;;;2.58;;
34711;SDS011;20941;42.408;25.634;2023-03-01T09:23:35;5.93;;;3.60;;
34711;SDS011;20941;42.408;25.634;2023-03-01T09:26:02;4.72;;;3.53;;
34711;SDS011;20941;42.408;25.634;2023-03-01T09:28:28;5.35;;;3.20;;
34711;SDS011;20941;42.408;25.634;2023-03-01T09:30:53;5.28;;;3.83;;
34711;SDS011;20941;42.408;25.634;2023-03-01T09:33:18;5.65;;;3.78;;
34711;SDS011;20941;42.408;25.634;2023-03-01T09:35:44;7.47;;;3.30;;
34711;SDS011;20941;42.408;25.634;2023-03-01T09:38:14;7.38;;;3.63;;
34711;SDS011;20941;42.408;25.634;2023-03-01T09:40:43;7.05;;;3.40;;
34711;SDS011;20941;42.408;25.634;2023-03-01T09:43:34;5.82;;;3.22;;
34711;SDS011;20941;42.408;25.634;2023-03-01T09:45:58;8.07;;;3.22;;
34711;SDS011;20941;42.408;25.634;2023-03-01T09:48:26;11.80;;;5.15;;
34711;SDS011;20941;42.408;25.634;2023-03-01T09:50:52;4.63;;;3.08;;
34711;SDS011;20941;42.408;25.634;2023-03-01T09:53:21;7.50;;;3.42;;
34711;SDS011;20941;42.408;25.634;2023-03-01T09:56:00;10.55;;;5.45;;
34711;SDS011;20941;42.408;25.634;2023-03-01T10:01:30;9.80;;;4.10;;
34711;SDS011;20941;42.408;25.634;2023-03-01T10:06:26;5.82;;;3.63;;
34711;SDS011;20941;42.408;25.634;2023-03-01T10:08:56;5.00;;;3.20;;
34711;SDS011;20941;42.408;25.634;2023-03-01T10:11:35;5.38;;;3.33;;
34711;SDS011;20941;42.408;25.634;2023-03-01T10:19:23;13.40;;;4.65;;
34711;SDS011;20941;42.408;25.634;2023-03-01T10:21:50;10.60;;;4.93;;
34711;SDS011;20941;42.408;25.634;2023-03-01T10:24:16;6.95;;;3.63;;
34711;SDS011;20941;42.408;25.634;2023-03-01T10:26:47;7.78;;;3.78;;
34711;SDS011;20941;42.408;25.634;2023-03-01T10:29:13;8.75;;;4.32;;
34711;SDS011;20941;42.408;25.634;2023-03-01T10:31:43;6.95;;;3.63;;
34711;SDS011;20941;42.408;25.634;2023-03-01T10:34:31;9.85;;;4.57;;
34711;SDS011;20941;42.408;25.634;2023-03-01T10:37:01;10.30;;;5.22;;
34711;SDS011;20941;42.408;25.634;2023-03-01T10:39:33;8.90;;;5.00;;
34711;SDS011;20941;42.408;25.634;2023-03-01T10:42:03;6.57;;;3.80;;
34711;SDS011;20941;42.408;25.634;2023-03-01T10:47:01;6.40;;;4.32;;
34711;SDS011;20941;42.408;25.634;2023-03-01T10:49:26;8.10;;;4.20;;
34711;SDS011;20941;42.408;25.634;2023-03-01T10:51:53;7.18;;;4.38;;
34711;SDS011;20941;42.408;25.634;2023-03-01T10:54:20;8.90;;;4.22;;
34711;SDS011;20941;42.408;25.634;2023-03-01T10:56:50;7.30;;;4.28;;
34711;SDS011;20941;42.408;25.634;2023-03-01T10:59:24;7.45;;;5.22;;
34711;SDS011;20941;42.408;25.634;2023-03-01T11:04:34;22.02;;;8.00;;
34711;SDS011;20941;42.408;25.634;2023-03-01T11:07:00;9.45;;;4.90;;
34711;SDS011;20941;42.408;25.634;2023-03-01T11:09:25;8.60;;;4.75;;
34711;SDS011;20941;42.408;25.634;2023-03-01T11:11:55;9.07;;;4.72;;
34711;SDS011;20941;42.408;25.634;2023-03-01T11:14:22;8.35;;;3.90;;
34711;SDS011;20941;42.408;25.634;2023-03-01T11:16:48;6.70;;;3.90;;
34711;SDS011;20941;42.408;25.634;2023-03-01T11:19:19;7.00;;;4.40;;
34711;SDS011;20941;42.408;25.634;2023-03-01T11:24:34;9.27;;;5.00;;
34711;SDS011;20941;42.408;25.634;2023-03-01T11:27:03;10.63;;;5.60;;
34711;SDS011;20941;42.408;25.634;2023-03-01T11:32:01;9.45;;;4.85;;
34711;SDS011;20941;42.408;25.634;2023-03-01T11:34:36;9.07;;;4.72;;
34711;SDS011;20941;42.408;25.634;2023-03-01T11:37:03;6.78;;;4.55;;
34711;SDS011;20941;42.408;25.634;2023-03-01T11:39:38;7.90;;;4.32;;
34711;SDS011;20941;42.408;25.634;2023-03-01T11:42:13;7.63;;;4.53;;
34711;SDS011;20941;42.408;25.634;2023-03-01T11:44:40;9.10;;;5.05;;
34711;SDS011;20941;42.408;25.634;2023-03-01T11:47:31;9.10;;;4.55;;
34711;SDS011;20941;42.408;25.634;2023-03-01T11:52:59;8.38;;;5.10;;
34711;SDS011;20941;42.408;25.634;2023-03-01T11:55:25;8.55;;;4.90;;
34711;SDS011;20941;42.408;25.634;2023-03-01T11:58:15;11.30;;;4.88;;
34711;SDS011;20941;42.408;25.634;2023-03-01T12:00:48;7.93;;;4.53;;
34711;SDS011;20941;42.408;25.634;2023-03-01T12:08:41;10.52;;;5.88;;
34711;SDS011;20941;42.408;25.634;2023-03-01T12:11:14;8.07;;;4.28;;
34711;SDS011;20941;42.408;25.634;2023-03-01T12:16:15;11.25;;;5.47;;
34711;SDS011;20941;42.408;25.634;2023-03-01T12:24:13;12.30;;;6.30;;
34711;SDS011;20941;42.408;25.634;2023-03-01T12:29:34;29.20;;;12.65;;
34711;SDS011;20941;42.408;25.634;2023-03-01T12:35:03;10.10;;;5.82;;
34711;SDS011;20941;42.408;25.634;2023-03-01T12:42:50;9.63;;;4.97;;
34711;SDS011;20941;42.408;25.634;2023-03-01T12:50:33;8.13;;;4.50;;
34711;SDS011;20941;42.408;25.634;2023-03-01T12:53:02;10.02;;;4.70;;
34711;SDS011;20941;42.408;25.634;2023-03-01T12:55:33;11.43;;;5.25;;
34711;SDS011;20941;42.408;25.634;2023-03-01T12:58:12;12.50;;;5.90;;
34711;SDS011;20941;42.408;25.634;2023-03-01T13:08:43;10.18;;;5.75;;
34711;SDS011;20941;42.408;25.634;2023-03-01T13:11:15;9.27;;;5.38;;
34711;SDS011;20941;42.408;25.634;2023-03-01T13:13:41;10.68;;;4.80;;
34711;SDS011;20941;42.408;25.634;2023-03-01T13:19:12;10.90;;;5.25;;
34711;SDS011;20941;42.408;25.634;2023-03-01T13:24:04;12.97;;;4.67;;
34711;SDS011;20941;42.408;25.634;2023-03-01T13:26:29;7.50;;;4.45;;
34711;SDS011;20941;42.408;25.634;2023-03-01T13:28:55;9.32;;;5.38;;
34711;SDS011;20941;42.408;25.634;2023-03-01T13:33:53;11.93;;;5.25;;
34711;SDS011;20941;42.408;25.634;2023-03-01T13:47:34;11.00;;;5.45;;
34711;SDS011;20941;42.408;25.634;2023-03-01T13:49:48;11.85;;;6.45;;
34711;SDS011;20941;42.408;25.634;2023-03-01T13:54:46;13.68;;;7.53;;
34711;SDS011;20941;42.408;25.634;2023-03-01T13:57:12;14.18;;;6.97;;
34711;SDS011;20941;42.408;25.634;2023-03-01T13:59:47;14.70;;;6.80;;
34711;SDS011;20941;42.408;25.634;2023-03-01T14:02:12;11.88;;;6.90;;
34711;SDS011;20941;42.408;25.634;2023-03-01T14:04:38;12.82;;;7.47;;
34711;SDS011;20941;42.408;25.634;2023-03-01T14:07:09;10.68;;;6.78;;
34711;SDS011;20941;42.408;25.634;2023-03-01T14:09:36;12.32;;;6.93;;
34711;SDS011;20941;42.408;25.634;2023-03-01T14:12:13;14.73;;;6.97;;
34711;SDS011;20941;42.408;25.634;2023-03-01T14:14:45;12.95;;;7.68;;
34711;SDS011;20941;42.408;25.634;2023-03-01T14:17:23;11.93;;;7.22;;
34711;SDS011;20941;42.408;25.634;2023-03-01T14:19:56;14.52;;;8.80;;
34711;SDS011;20941;42.408;25.634;2023-03-01T14:22:34;13.63;;;7.47;;
34711;SDS011;20941;42.408;25.634;2023-03-01T14:25:01;13.93;;;7.88;;
34711;SDS011;20941;42.408;25.634;2023-03-01T14:27:35;15.82;;;7.88;;
34711;SDS011;20941;42.408;25.634;2023-03-01T14:30:10;16.33;;;8.30;;
34711;SDS011;20941;42.408;25.634;2023-03-01T14:32:37;14.60;;;9.30;;
34711;SDS011;20941;42.408;25.634;2023-03-01T14:35:18;17.23;;;9.77;;
34711;SDS011;20941;42.408;25.634;2023-03-01T14:37:44;22.17;;;10.48;;
34711;SDS011;20941;42.408;25.634;2023-03-01T14:40:19;18.67;;;9.30;;
34711;SDS011;20941;42.408;25.634;2023-03-01T14:42:44;18.45;;;9.88;;
34711;SDS011;20941;42.408;25.634;2023-03-01T14:45:10;20.33;;;10.40;;
34711;SDS011;20941;42.408;25.634;2023-03-01T14:47:37;21.95;;;12.90;;
34711;SDS011;20941;42.408;25.634;2023-03-01T14:52:34;34.15;;;22.63;;
34711;SDS011;20941;42.408;25.634;2023-03-01T14:55:05;15.18;;;9.63;;
34711;SDS011;20941;42.408;25.634;2023-03-01T14:57:32;17.13;;;10.10;;
34711;SDS011;20941;42.408;25.634;2023-03-01T14:59:59;18.58;;;10.52;;
34711;SDS011;20941;42.408;25.634;2023-03-01T15:02:30;24.02;;;11.90;;
34711;SDS011;20941;42.408;25.634;2023-03-01T15:05:03;27.30;;;17.35;;
34711;SDS011;20941;42.408;25.634;2023-03-01T15:07:30;25.63;;;12.82;;
34711;SDS011;20941;42.408;25.634;2023-03-01T15:09:57;20.00;;;12.13;;
34711;SDS011;20941;42.408;25.634;2023-03-01T15:14:56;24.40;;;12.35;;
34711;SDS011;20941;42.408;25.634;2023-03-01T15:19:53;23.33;;;11.55;;
34711;SDS011;20941;42.408;25.634;2023-03-01T15:22:18;18.92;;;10.88;;
34711;SDS011;20941;42.408;25.634;2023-03-01T15:24:48;22.60;;;10.75;;
34711;SDS011;20941;42.408;25.634;2023-03-01T15:27:21;24.20;;;12.45;;
34711;SDS011;20941;42.408;25.634;2023-03-01T15:29:50;24.42;;;14.02;;
34711;SDS011;20941;42.408;25.634;2023-03-01T15:32:27;20.25;;;11.82;;
34711;SDS011;20941;42.408;25.634;2023-03-01T15:34:53;27.58;;;13.70;;
34711;SDS011;20941;42.408;25.634;2023-03-01T15:39:59;25.65;;;14.48;;
34711;SDS011;20941;42.408;25.634;2023-03-01T15:47:39;26.55;;;12.27;;
34711;SDS011;20941;42.408;25.634;2023-03-01T15:50:05;23.30;;;12.23;;
34711;SDS011;20941;42.408;25.634;2023-03-01T15:52:35;24.40;;;12.95;;
34711;SDS011;20941;42.408;25.634;2023-03-01T15:55:05;25.15;;;13.68;;
34711;SDS011;20941;42.408;25.634;2023-03-01T15:57:31;27.33;;;13.93;;
34711;SDS011;20941;42.408;25.634;2023-03-01T15:59:56;31.52;;;16.40;;
34711;SDS011;20941;42.408;25.634;2023-03-01T16:02:22;25.75;;;14.23;;
34711;SDS011;20941;42.408;25.634;2023-03-01T16:04:48;31.13;;;14.68;;
34711;SDS011;20941;42.408;25.634;2023-03-01T16:07:16;27.15;;;14.00;;
34711;SDS011;20941;42.408;25.634;2023-03-01T16:09:42;30.63;;;15.20;;
34711;SDS011;20941;42.408;25.634;2023-03-01T16:12:12;28.27;;;15.10;;
34711;SDS011;20941;42.408;25.634;2023-03-01T16:14:39;33.25;;;16.08;;
34711;SDS011;20941;42.408;25.634;2023-03-01T16:17:04;34.90;;;16.05;;
34711;SDS011;20941;42.408;25.634;2023-03-01T16:19:30;29.65;;;14.85;;
34711;SDS011;20941;42.408;25.634;2023-03-01T16:21:55;31.38;;;15.32;;
34711;SDS011;20941;42.408;25.634;2023-03-01T16:24:21;32.45;;;15.20;;
34711;SDS011;20941;42.408;25.634;2023-03-01T16:26:46;30.20;;;16.23;;
34711;SDS011;20941;42.408;25.634;2023-03-01T16:29:11;35.83;;;16.52;;